createdAt,value
2017-05-16T00:04:02.833Z,0
2017-05-16T00:09:01.124Z,0
2017-05-16T00:13:58.359Z,0
2017-05-16T00:18:53.999Z,0
2017-05-16T00:23:52.421Z,0
2017-05-16T00:28:47.858Z,0
2017-05-16T00:33:44.697Z,0
2017-05-16T00:38:41.124Z,0
2017-05-16T00:43:37.346Z,0
2017-05-16T00:48:33.125Z,0
2017-05-16T00:53:29.269Z,0
2017-05-16T00:58:25.405Z,0
2017-05-16T01:03:21.344Z,0
2017-05-16T01:08:18.804Z,0
2017-05-16T01:13:14.234Z,0
2017-05-16T01:18:10.194Z,0
2017-05-16T01:23:06.614Z,0
2017-05-16T01:28:02.157Z,0
2017-05-16T01:32:58.299Z,0
2017-05-16T01:37:55.521Z,0
2017-05-16T01:42:52.042Z,0
2017-05-16T01:47:48.650Z,0
2017-05-16T01:52:44.324Z,0
2017-05-16T01:57:40.069Z,0
2017-05-16T02:02:36.782Z,0
2017-05-16T02:07:32.109Z,0
2017-05-16T02:12:27.707Z,0
2017-05-16T02:17:26.730Z,0
2017-05-16T02:22:22.010Z,0
2017-05-16T02:27:18.094Z,0
2017-05-16T02:32:13.941Z,0
2017-05-16T02:37:11.634Z,0
2017-05-16T02:42:07.553Z,0
2017-05-16T02:47:03.717Z,0
2017-05-16T02:52:00.400Z,0
2017-05-16T02:56:57.517Z,0
2017-05-16T03:01:54.067Z,0
2017-05-16T03:06:50.821Z,0
2017-05-16T03:11:46.361Z,0
2017-05-16T03:16:43.086Z,0
2017-05-16T03:21:38.945Z,0
2017-05-16T03:26:34.707Z,0
2017-05-16T03:36:32.382Z,0
2017-05-16T03:41:28.216Z,0
2017-05-16T03:46:24.271Z,5
2017-05-16T03:51:21.114Z,5
2017-05-16T03:56:16.774Z,5
2017-05-16T04:01:12.512Z,5
2017-05-16T04:06:08.779Z,10
2017-05-16T04:11:04.860Z,10
2017-05-16T04:16:01.036Z,15
2017-05-16T04:20:56.964Z,15
2017-05-16T04:25:53.617Z,15
2017-05-16T04:30:49.659Z,15
2017-05-16T04:35:45.819Z,15
2017-05-16T04:40:42.860Z,20
2017-05-16T04:45:38.560Z,25
2017-05-16T04:50:35.996Z,30
2017-05-16T04:55:31.560Z,40
2017-05-16T05:00:28.770Z,45
2017-05-16T05:05:24.596Z,45
2017-05-16T05:15:20.936Z,40
2017-05-16T05:20:17.390Z,55
2017-05-16T05:25:13.285Z,60
2017-05-16T05:40:14.488Z,75
2017-05-16T05:45:09.750Z,70
2017-05-16T05:50:05.665Z,75
2017-05-16T06:00:04.078Z,85
2017-05-16T06:05:00.179Z,105
2017-05-16T06:09:56.213Z,75
2017-05-16T06:14:52.294Z,65
2017-05-16T06:19:47.832Z,60
2017-05-16T06:24:43.825Z,65
2017-05-16T06:29:39.549Z,65
2017-05-16T06:34:35.305Z,65
2017-05-16T06:39:31.370Z,70
2017-05-16T06:44:27.188Z,75
2017-05-16T06:49:23.092Z,80
2017-05-16T06:54:18.816Z,110
2017-05-16T06:59:16.011Z,145
2017-05-16T07:04:11.739Z,160
2017-05-16T07:09:07.911Z,115
2017-05-16T07:14:03.910Z,115
2017-05-16T07:18:59.602Z,150
2017-05-16T07:23:56.185Z,170
2017-05-16T07:28:52.064Z,185
2017-05-16T07:33:48.331Z,250
2017-05-16T07:38:44.585Z,270
2017-05-16T07:43:41.508Z,250
2017-05-16T07:48:37.406Z,230
2017-05-16T07:53:33.685Z,205
2017-05-16T07:58:30.950Z,235
2017-05-16T08:03:26.473Z,265
2017-05-16T08:08:23.047Z,255
2017-05-16T08:13:19.054Z,250
2017-05-16T08:18:17.522Z,240
2017-05-16T08:23:12.872Z,325
2017-05-16T08:28:09.539Z,350
2017-05-16T08:33:05.884Z,345
2017-05-16T08:38:05.532Z,435
2017-05-16T08:43:01.712Z,450
2017-05-16T08:47:58.318Z,520
2017-05-16T08:52:54.714Z,655
2017-05-16T08:57:52.172Z,580
2017-05-16T09:02:48.371Z,440
2017-05-16T09:07:44.230Z,495
2017-05-16T09:12:40.136Z,585
2017-05-16T09:17:36.015Z,475
2017-05-16T09:22:32.044Z,405
2017-05-16T09:27:28.961Z,345
2017-05-16T09:32:24.465Z,865
2017-05-16T09:37:21.453Z,1370
2017-05-16T09:42:18.536Z,420
2017-05-16T09:47:14.004Z,295
2017-05-16T09:52:09.131Z,260
2017-05-16T09:57:04.681Z,425
2017-05-16T10:02:01.232Z,720
2017-05-16T10:06:57.549Z,445
2017-05-16T10:11:53.077Z,350
2017-05-16T10:16:49.630Z,480
2017-05-16T10:21:45.816Z,565
2017-05-16T10:26:41.994Z,440
2017-05-16T10:31:37.978Z,335
2017-05-16T10:36:35.675Z,430
2017-05-16T10:41:31.007Z,560
2017-05-16T10:46:27.358Z,660
2017-05-16T10:51:24.094Z,505
2017-05-16T10:56:20.328Z,595
2017-05-16T11:01:16.704Z,800
2017-05-16T11:06:14.703Z,755
2017-05-16T11:11:10.343Z,500
2017-05-16T11:16:06.118Z,555
2017-05-16T11:21:02.559Z,675
2017-05-16T11:25:58.884Z,565
2017-05-16T11:30:57.953Z,425
2017-05-16T11:35:52.899Z,540
2017-05-16T11:40:49.674Z,635
2017-05-16T11:45:46.043Z,420
2017-05-16T11:50:43.176Z,345
2017-05-16T11:55:38.147Z,310
2017-05-16T12:00:33.657Z,270
2017-05-16T12:05:29.101Z,220
2017-05-16T12:10:24.724Z,240
2017-05-16T12:15:20.626Z,320
2017-05-16T12:20:17.583Z,380
2017-05-16T12:25:13.724Z,405
2017-05-16T12:30:09.784Z,390
2017-05-16T12:35:05.948Z,415
2017-05-16T12:40:01.872Z,360
2017-05-16T12:44:57.829Z,370
2017-05-16T12:49:55.489Z,440
2017-05-16T12:54:51.482Z,835
2017-05-16T12:59:48.351Z,570
2017-05-16T13:04:44.812Z,1330
2017-05-16T13:09:41.255Z,1100
2017-05-16T13:14:37.419Z,945
2017-05-16T13:19:33.846Z,605
2017-05-16T13:24:29.492Z,1005
2017-05-16T13:29:26.003Z,1070
2017-05-16T13:34:22.629Z,680
2017-05-16T13:39:18.232Z,570
2017-05-16T13:44:14.774Z,395
2017-05-16T13:49:10.969Z,300
2017-05-16T13:54:06.038Z,280
2017-05-16T13:59:01.632Z,290
2017-05-16T14:03:57.108Z,345
2017-05-16T14:08:52.895Z,365
2017-05-16T14:13:49.601Z,435
2017-05-16T14:18:45.458Z,345
2017-05-16T14:23:42.613Z,330
2017-05-16T14:28:38.063Z,300
2017-05-16T14:33:33.883Z,345
2017-05-16T14:38:32.817Z,290
2017-05-16T14:43:28.028Z,275
2017-05-16T14:48:23.945Z,255
2017-05-16T14:53:19.732Z,265
2017-05-16T14:58:16.509Z,290
2017-05-16T15:03:12.421Z,270
2017-05-16T15:08:08.437Z,230
2017-05-16T15:13:04.430Z,225
2017-05-16T15:17:59.893Z,175
2017-05-16T15:22:55.935Z,180
2017-05-16T15:27:52.541Z,195
2017-05-16T15:32:47.998Z,190
2017-05-16T15:37:44.007Z,180
2017-05-16T15:42:39.765Z,180
2017-05-16T15:47:36.009Z,175
2017-05-16T15:52:31.757Z,160
2017-05-16T15:57:27.471Z,150
2017-05-16T16:02:23.186Z,145
2017-05-16T16:07:21.401Z,135
2017-05-16T16:12:16.604Z,135
2017-05-16T16:17:12.544Z,135
2017-05-16T16:22:08.314Z,135
2017-05-16T16:27:05.132Z,130
2017-05-16T16:32:00.734Z,130
2017-05-16T16:36:57.441Z,130
2017-05-16T16:41:53.297Z,125
2017-05-16T16:46:49.521Z,125
2017-05-16T16:51:45.440Z,115
2017-05-16T16:56:41.242Z,110
2017-05-16T17:01:37.930Z,105
2017-05-16T17:06:33.326Z,100
2017-05-16T17:11:29.189Z,100
2017-05-16T17:16:24.979Z,90
2017-05-16T17:21:22.533Z,85
2017-05-16T17:26:17.938Z,80
2017-05-16T17:31:13.635Z,75
2017-05-16T17:36:09.606Z,70
2017-05-16T17:41:06.607Z,65
2017-05-16T17:46:02.319Z,65
2017-05-16T17:50:58.454Z,60
2017-05-16T17:55:55.421Z,55
2017-05-16T18:00:51.383Z,60
2017-05-16T18:05:47.541Z,50
2017-05-16T18:10:45.112Z,40
2017-05-16T18:15:40.451Z,35
2017-05-16T18:20:37.551Z,30
2017-05-16T18:25:33.103Z,20
2017-05-16T18:30:34.934Z,15
2017-05-16T18:35:29.771Z,15
2017-05-16T18:40:33.190Z,10
2017-05-16T18:45:30.606Z,10
2017-05-16T18:50:26.037Z,5
2017-05-16T18:55:25.138Z,5
2017-05-16T19:00:21.129Z,5
2017-05-16T19:05:16.925Z,0
2017-05-16T19:10:15.665Z,0
2017-05-16T19:15:10.986Z,0
2017-05-16T19:20:07.752Z,0
2017-05-16T19:25:11.549Z,0
2017-05-16T19:30:08.615Z,0
2017-05-16T19:35:04.696Z,0
2017-05-16T19:40:00.258Z,0
2017-05-16T19:44:55.581Z,0
2017-05-16T19:49:53.904Z,0
2017-05-16T19:54:50.121Z,0
2017-05-16T19:59:51.005Z,0
2017-05-16T20:04:46.986Z,0
2017-05-16T20:09:43.071Z,0
2017-05-16T20:14:39.546Z,0
2017-05-16T20:19:36.473Z,0
2017-05-16T20:24:31.735Z,0
2017-05-16T20:29:27.893Z,0
2017-05-16T20:34:23.537Z,0
2017-05-16T20:39:19.747Z,0
2017-05-16T20:44:16.096Z,0
2017-05-16T20:49:11.623Z,0
2017-05-16T20:54:09.380Z,0
2017-05-16T20:59:04.499Z,0
2017-05-16T21:04:01.752Z,0
2017-05-16T21:08:56.889Z,0
2017-05-16T21:13:53.009Z,0
2017-05-16T21:18:49.055Z,0
2017-05-16T21:23:44.593Z,0
2017-05-16T21:28:40.393Z,0
2017-05-16T21:33:36.331Z,0
2017-05-16T21:38:33.719Z,0
2017-05-16T21:43:29.401Z,0
2017-05-16T21:48:26.397Z,0
2017-05-16T21:53:22.863Z,0
2017-05-16T21:58:18.368Z,0
2017-05-16T22:03:14.224Z,0
2017-05-16T22:08:10.232Z,0
2017-05-16T22:13:05.848Z,0
2017-05-16T22:18:01.780Z,0
2017-05-16T22:22:59.414Z,0
2017-05-16T22:27:55.303Z,0
2017-05-16T22:32:52.216Z,0
2017-05-16T22:37:48.322Z,0
2017-05-16T22:42:44.159Z,0
2017-05-16T22:47:40.122Z,0
2017-05-16T22:52:35.882Z,0
2017-05-16T22:57:31.540Z,0
2017-05-16T23:02:27.619Z,0
2017-05-16T23:07:24.224Z,0
2017-05-16T23:12:20.091Z,0
2017-05-16T23:17:15.931Z,0
2017-05-16T23:22:12.013Z,0
2017-05-16T23:27:07.737Z,0
2017-05-16T23:32:04.058Z,0
2017-05-16T23:37:04.217Z,0
2017-05-16T23:41:59.080Z,0
2017-05-16T23:46:54.838Z,0
2017-05-16T23:51:51.365Z,0
2017-05-16T23:56:46.819Z,0
